Angier, NC

4:38 PM EST on March 01, 2015 (GMT -0500)
Stameys Walk | Change Station
CLOSE
Current Station
Personal Weather Station
Location: Willow Spring, NC
Elevation: 374 ft
Nearby Weather Stations

Elev 374 ft 35.55 °N, 78.72 °W | Updated 2 minutes ago

Rain
Rain
34.9 °F
Feels Like 35 °F
N
2.0
Wind Variable Wind from NE
Gusts 2.0 mph

Today
High -- | Low -- °F
--% Chance of Precip.
Yesterday
High -- | Low -- °F
Precip. -- in
6:45 AM 6:10 PM
Waxing Gibbous, 87% visible
Pressure 30.41 in
Visibility 10.0 miles
Clouds Overcast 500 ft
Windchill 35 °F
Dew Point 34 °F
Humidity 96%
Rainfall 0.58 in
Snow Depth Not available.
UV 1 out of 12
Pollen .80 out of 12
Air Quality Not available.
Flu Activity Not available.
METAR KHRJ 012115Z AUTO 34004KT 10SM OVC005 03/03 A3041 RMK AO2 T00260025

More Conditions Fewer Conditions

Pressure 30.41 in
Visibility 10.0 miles
Clouds Overcast 500 ft
Windchill 35 °F
Dew Point 34 °F
Humidity 96%
Rainfall 0.58 in
Snow Depth Not available.
UV 1 out of 12
Pollen .80 out of 12
Air Quality Not available.
Flu Activity Not available.
METAR KHRJ 012115Z AUTO 34004KT 10SM OVC005 03/03 A3041 RMK AO2 T00260025

More Conditions Fewer Conditions

10-Day Weather Forecast

Almanac

Astronomy

Mar. 01, 2015 Rise Set
Actual Time
Civil Twilight
Nautical Twilight
Astronomical Twilight
Moon
Length of Visible Light
Length of Day
Tomorrow will be .
, % of the Moon is Illuminated

Today's Extremes

State Highs State Lows

Community

WunderPhotos

Upload Photos

1,801,574 photos uploaded!

WunderBlogs® & News

Nearby

Air Quality

  Air Quality AQ Index Pollutant
Not available.

Snow Depth

Station Depth Elevation

Earthquake Activity

City Distance Mag. Time & Date
Minimum magnitude displayed is 2.5.

Coastal Water Temperatures

Place Temperature

Nearby Weather Stations